This is the latest recevied weather packets stored in our database for station/object WD7OO. If no packets are shown the sender has not sent any weather packets the latest 10 day(s).
| Time | Temp. | Humidity | Pressure | Rain* | Wind** | Luminosity | Snow |
|---|---|---|---|---|---|---|---|
| 1777315230 | 15.56° C | 94% | 1012.4 hPa | 3.05 mm | - | 20 W/m² | - |
| 1777314927 | 15.56° C | 93% | 1012.2 hPa | 3.05 mm | - | 23 W/m² | - |
| 1777314623 | 15.56° C | 92% | 1012 hPa | 3.05 mm | - | 23 W/m² | - |
| 1777314320 | 15.56° C | 90% | 1011.9 hPa | 3.05 mm | - | 24 W/m² | - |
| 1777314017 | 16.11° C | 86% | 1011.8 hPa | 1.78 mm | - | 24 W/m² | - |
| 1777313714 | 16.67° C | 83% | 1011.8 hPa | 0 mm | - | 23 W/m² | - |
| 1777313412 | 17.22° C | 80% | 1011.4 hPa | 0 mm | - | 24 W/m² | - |
| 1777313109 | 17.22° C | 77% | 1011.2 hPa | 0 mm | - | 23 W/m² | - |
| 1777312805 | 17.22° C | 77% | 1011.4 hPa | 0 mm | - | 27 W/m² | - |
| 1777312502 | 17.22° C | 76% | 1011.2 hPa | 0 mm | - | 32 W/m² | - |
| 1777312198 | 17.22° C | 76% | 1011.2 hPa | 0 mm | - | 38 W/m² | - |
| 1777311896 | 17.22° C | 76% | 1011.2 hPa | 0 mm | - | 54 W/m² | - |
| 1777311592 | 17.22° C | 76% | 1011.4 hPa | 0 mm | - | 74 W/m² | - |
| 1777311290 | 17.78° C | 76% | 1011.3 hPa | 0 mm | - | 88 W/m² | - |
| 1777310988 | 17.78° C | 74% | 1011.4 hPa | 0 mm | - | 113 W/m² | - |
| 1777310685 | 17.78° C | 74% | 1011.5 hPa | 0 mm | - | 152 W/m² | - |
| 1777310382 | 17.78° C | 74% | 1011.8 hPa | 0 mm | - | 168 W/m² | - |
| 1777310079 | 17.78° C | 74% | 1011.8 hPa | 0 mm | - | 208 W/m² | - |
| 1777309778 | 17.22° C | 74% | 1012.1 hPa | 0 mm | - | 231 W/m² | - |
| 1777309475 | 17.22° C | 74% | 1011.7 hPa | 0 mm | - | 253 W/m² | - |
| 1777309171 | 17.22° C | 73% | 1011.8 hPa | 0 mm | - | 265 W/m² | - |
| 1777308870 | 17.22° C | 74% | 1012.1 hPa | 0 mm | - | 265 W/m² | - |
| 1777308565 | 17.22° C | 74% | 1012.2 hPa | 0 mm | - | 277 W/m² | - |
| 1777308261 | 16.67° C | 74% | 1012.6 hPa | 0 mm | - | 248 W/m² | - |
| 1777307956 | 16.67° C | 74% | 1012.7 hPa | 0 mm | - | 218 W/m² | - |
* Rain latest hour (hover to see other rain measurements)
** Current wind speed in m/s (hover to see current wind gust speed)